ADDS METAR Data INFO
IDs: Format: Raw Decoded Include TAF

Data at: 0741 UTC 21 Jul 2018

PAJN 210653Z 27003KT 10SM FEW180 BKN200 14/11 A3021 RMK AO2 SLP231 T01440106
PAJN 210553Z 24004KT 10SM FEW110 FEW180 BKN220 16/09 A3020 RMK AO2 SLP227 T01610094 10228 20161 53007
PAJN 210453Z 22005KT 10SM BKN220 19/10 A3019 RMK AO2 SLP222 T01890100
PAJN 210353Z 31004KT 10SM BKN220 22/11 A3018 RMK AO2 SLP221 T02220111
PAJN 210253Z 29007KT 10SM BKN220 23/11 A3018 RMK AO2 SLP219 T02280111 56010
PAJN 210153Z 27008KT 10SM BKN220 23/12 A3019 RMK AO2 SLP222 T02280117
PAJN 210053Z 27008KT 10SM BKN200 23/12 A3020 RMK SLP225 T02280122 VIA AUTODIAL
PAJN 202353Z 27011KT 10SM SCT200 22/12 A3021 RMK AO2 SLP229 SCT V BKN T02220122 10222 20161 58009
PAJN 202253Z 27009KT 10SM SCT200 21/12 A3022 RMK AO2 SLP232 T02110122
PAJN 202153Z 29009KT 10SM SCT200 21/12 A3023 RMK AO2 SLP236 T02060122
PAJN 202053Z 24012KT 10SM BKN200 19/12 A3023 RMK AO2 SLP238 T01940122 58009
PAJN 201953Z 28009KT 10SM FEW028 SCT200 18/12 A3024 RMK AO2 SLP241 T01830122
PAJN 201853Z 22006KT 10SM SCT026 BKN200 17/12 A3025 RMK AO2 SLP245 T01670117
PAJN 201753Z 28006KT 10SM SCT027 BKN200 17/12 A3026 RMK AO2 SLP247 T01670117 10167 20089 58000
PAJN 201653Z VRB04KT 10SM FEW014 SCT024 BKN200 16/12 A3026 RMK AO2 SLP247 SCT V BKN T01560117
PAJN 201553Z 26004KT 10SM FEW011 SCT021 BKN200 13/10 A3026 RMK SLP247 T01280100 VIA AUTODIAL
PAJN 201514Z 25004KT 10SM FEW013 SCT022 BKN200 12/09 A3026 RMK AO2 T01170094
PAJN 201453Z 00000KT 10SM FEW012 BKN022 BKN200 12/09 A3026 RMK AO2 SLP247 T01170094 53006
PAJN 201416Z 26003KT 10SM BKN027 BKN200 11/09 A3026 RMK AO2 T01060089
PAJN 201353Z 25003KT 10SM FEW027 FEW200 10/08 A3026 RMK AO2 SLP245 T01000083
PAJN 201253Z 23003KT 10SM FEW031 FEW080 09/09 A3025 RMK AO2 SLP242 T00940089
PAJN 201153Z 24003KT 10SM SCT034 10/09 A3024 RMK AO2 SLP241 70008 T01000089 10139 20094 53006
PAJN 201053Z 28003KT 10SM FEW035 SCT080 SCT200 09/08 A3024 RMK AO2 SLP238 T00940083
PAJN 200953Z 24005KT 10SM SCT035 SCT080 SCT200 10/09 A3023 RMK AO2 SLP237 AURBO T01000089
PAJN 200853Z 25005KT 10SM FEW037 SCT080 SCT200 10/09 A3023 RMK AO2 SLP235 T01000089 401940100 51007
PAJN 200753Z 00000KT 10SM FEW038 SCT080 BKN200 12/09 A3022 RMK AO2 SLP233 T01170094
PAJN 200653Z VRB03KT 10SM FEW042 FEW200 12/10 A3021 RMK AO2 SLP231 T01220100
PAJN 200553Z 22003KT 10SM FEW037 FEW042 FEW200 14/10 A3021 RMK AO2 SLP228 T01390100 10194 20133 53003
PAJN 200453Z 00000KT 10SM FEW040 FEW080 FEW200 16/11 A3020 RMK AO2 SLP225 T01610106
PAJN 200353Z 28005KT 10SM FEW038 FEW200 18/10 A3019 RMK AO2 SLP224 T01830100
PAJN 200253Z 25007KT 10SM FEW042 FEW080 FEW200 19/11 A3020 RMK AO2 SLP225 T01890111 56006
PAJN 200153Z 27007KT 10SM FEW032 FEW042 FEW080 FEW200 19/11 A3020 RMK AO2 SLP226 T01890106
PAJN 200053Z 28009KT 10SM FEW032 FEW042 FEW080 SCT200 19/11 A3021 RMK AO2 SLP229 T01890106
PAJN 192353Z 27010KT 10SM FEW032 SCT042 SCT080 SCT200 18/11 A3021 RMK AO2 SLP231 T01780106 10189 20139 56003
PAJN 192253Z 28008KT 10SM FEW032 SCT044 SCT080 BKN200 18/12 A3022 RMK AO2 SLP232 T01780117
PAJN 192153Z 24011KT 10SM FEW027 BKN041 BKN080 16/12 A3022 RMK AO2 SLP233 T01610122
PAJN 192053Z 24012KT 10SM FEW021 SCT042 BKN075 16/13 A3022 RMK AO2 SLP234 T01610128 56005
PAJN 191953Z 23011KT 10SM FEW016 SCT039 BKN080 16/12 A3023 RMK AO2 SLP235 T01560122